sensor_id;sensor_type;location;lat;lon;timestamp;pressure;altitude;pressure_sealevel;temperature;humidity
61037;BME280;72210;47.076;15.430;2024-03-22T00:00:59;97602.41;;;10.00;100.00
61037;BME280;72210;47.076;15.430;2024-03-22T00:03:25;97601.81;;;9.95;100.00
61037;BME280;72210;47.076;15.430;2024-03-22T00:05:52;97594.25;;;9.90;100.00
61037;BME280;72210;47.076;15.430;2024-03-22T00:08:18;97595.19;;;9.89;100.00
61037;BME280;72210;47.076;15.430;2024-03-22T00:10:44;97592.00;;;9.84;100.00
61037;BME280;72210;47.076;15.430;2024-03-22T00:13:10;97599.94;;;9.81;100.00
61037;BME280;72210;47.076;15.430;2024-03-22T00:15:36;97590.94;;;9.70;100.00
61037;BME280;72210;47.076;15.430;2024-03-22T00:18:05;97585.00;;;9.68;100.00
61037;BME280;72210;47.076;15.430;2024-03-22T00:20:31;97588.81;;;9.61;100.00
61037;BME280;72210;47.076;15.430;2024-03-22T00:22:58;97585.72;;;9.55;100.00
61037;BME280;72210;47.076;15.430;2024-03-22T00:25:24;97592.84;;;9.51;100.00
61037;BME280;72210;47.076;15.430;2024-03-22T00:27:50;97597.19;;;9.50;100.00
61037;BME280;72210;47.076;15.430;2024-03-22T00:30:16;97602.31;;;9.52;100.00
61037;BME280;72210;47.076;15.430;2024-03-22T00:32:42;97601.16;;;9.58;100.00
61037;BME280;72210;47.076;15.430;2024-03-22T00:35:10;97600.25;;;9.59;100.00
61037;BME280;72210;47.076;15.430;2024-03-22T00:37:36;97601.91;;;9.60;100.00
61037;BME280;72210;47.076;15.430;2024-03-22T00:40:01;97597.31;;;9.65;100.00
61037;BME280;72210;47.076;15.430;2024-03-22T00:42:27;97600.44;;;9.72;100.00
61037;BME280;72210;47.076;15.430;2024-03-22T00:44:53;97600.34;;;9.73;100.00
61037;BME280;72210;47.076;15.430;2024-03-22T00:47:19;97595.06;;;9.75;100.00
61037;BME280;72210;47.076;15.430;2024-03-22T00:49:46;97606.16;;;9.78;100.00
61037;BME280;72210;47.076;15.430;2024-03-22T00:52:13;97605.81;;;9.84;100.00
61037;BME280;72210;47.076;15.430;2024-03-22T00:54:39;97604.66;;;9.90;100.00
61037;BME280;72210;47.076;15.430;2024-03-22T00:57:05;97617.28;;;9.98;100.00
61037;BME280;72210;47.076;15.430;2024-03-22T00:59:31;97606.47;;;10.05;100.00
61037;BME280;72210;47.076;15.430;2024-03-22T01:01:57;97603.53;;;10.12;100.00
61037;BME280;72210;47.076;15.430;2024-03-22T01:04:23;97607.53;;;10.17;100.00
61037;BME280;72210;47.076;15.430;2024-03-22T01:06:49;97609.06;;;10.21;100.00
61037;BME280;72210;47.076;15.430;2024-03-22T01:09:17;97606.38;;;10.23;100.00
61037;BME280;72210;47.076;15.430;2024-03-22T01:11:43;97604.44;;;10.27;100.00
61037;BME280;72210;47.076;15.430;2024-03-22T01:14:09;97601.66;;;10.30;100.00
61037;BME280;72210;47.076;15.430;2024-03-22T01:16:35;97602.59;;;10.29;100.00
61037;BME280;72210;47.076;15.430;2024-03-22T01:19:01;97608.47;;;10.32;100.00
61037;BME280;72210;47.076;15.430;2024-03-22T01:21:27;97601.44;;;10.34;100.00
61037;BME280;72210;47.076;15.430;2024-03-22T01:23:54;97602.22;;;10.36;100.00
61037;BME280;72210;47.076;15.430;2024-03-22T01:26:22;97600.38;;;10.38;100.00
61037;BME280;72210;47.076;15.430;2024-03-22T01:28:48;97590.78;;;10.39;100.00
61037;BME280;72210;47.076;15.430;2024-03-22T01:31:14;97595.91;;;10.40;100.00
61037;BME280;72210;47.076;15.430;2024-03-22T01:33:40;97604.50;;;10.43;100.00
61037;BME280;72210;47.076;15.430;2024-03-22T01:36:06;97596.59;;;10.44;100.00
61037;BME280;72210;47.076;15.430;2024-03-22T01:38:32;97598.34;;;10.44;100.00
61037;BME280;72210;47.076;15.430;2024-03-22T01:40:58;97601.72;;;10.46;100.00
61037;BME280;72210;47.076;15.430;2024-03-22T01:43:26;97601.88;;;10.43;100.00
61037;BME280;72210;47.076;15.430;2024-03-22T01:45:52;97601.09;;;10.40;100.00
61037;BME280;72210;47.076;15.430;2024-03-22T01:48:18;97610.53;;;10.43;100.00
61037;BME280;72210;47.076;15.430;2024-03-22T01:50:44;97600.38;;;10.38;100.00
61037;BME280;72210;47.076;15.430;2024-03-22T01:53:10;97586.69;;;10.35;100.00
61037;BME280;72210;47.076;15.430;2024-03-22T01:55:38;97593.56;;;10.36;100.00
61037;BME280;72210;47.076;15.430;2024-03-22T01:58:04;97593.38;;;10.39;100.00
61037;BME280;72210;47.076;15.430;2024-03-22T02:00:34;97593.03;;;10.45;100.00
61037;BME280;72210;47.076;15.430;2024-03-22T02:03:00;97586.84;;;10.48;99.23
61037;BME280;72210;47.076;15.430;2024-03-22T02:05:26;97586.50;;;10.54;96.31
61037;BME280;72210;47.076;15.430;2024-03-22T02:07:52;97583.63;;;10.58;93.59
61037;BME280;72210;47.076;15.430;2024-03-22T02:10:17;97585.28;;;10.59;91.32
61037;BME280;72210;47.076;15.430;2024-03-22T02:12:43;97579.06;;;10.62;87.42
61037;BME280;72210;47.076;15.430;2024-03-22T02:15:09;97566.72;;;10.66;83.64
61037;BME280;72210;47.076;15.430;2024-03-22T02:17:39;97576.03;;;10.70;81.16
61037;BME280;72210;47.076;15.430;2024-03-22T02:20:05;97569.91;;;10.71;79.43
61037;BME280;72210;47.076;15.430;2024-03-22T02:22:32;97573.91;;;10.76;79.88
61037;BME280;72210;47.076;15.430;2024-03-22T02:25:00;97573.81;;;10.78;78.29
61037;BME280;72210;47.076;15.430;2024-03-22T02:27:26;97571.13;;;10.80;77.06
61037;BME280;72210;47.076;15.430;2024-03-22T02:29:52;97568.63;;;10.78;76.32
61037;BME280;72210;47.076;15.430;2024-03-22T02:32:18;97570.13;;;10.82;73.30
61037;BME280;72210;47.076;15.430;2024-03-22T02:34:44;97573.56;;;10.83;71.69
61037;BME280;72210;47.076;15.430;2024-03-22T02:37:10;97570.78;;;10.86;70.90
61037;BME280;72210;47.076;15.430;2024-03-22T02:39:35;97574.16;;;10.88;69.59
61037;BME280;72210;47.076;15.430;2024-03-22T02:42:03;97566.34;;;10.88;69.45
61037;BME280;72210;47.076;15.430;2024-03-22T02:44:29;97573.31;;;10.87;68.39
61037;BME280;72210;47.076;15.430;2024-03-22T02:46:55;97574.91;;;10.90;66.62
61037;BME280;72210;47.076;15.430;2024-03-22T02:49:21;97581.81;;;10.91;65.53
61037;BME280;72210;47.076;15.430;2024-03-22T02:51:48;97578.25;;;10.92;65.33
61037;BME280;72210;47.076;15.430;2024-03-22T02:54:14;97577.50;;;10.90;65.10
61037;BME280;72210;47.076;15.430;2024-03-22T02:56:40;97566.06;;;10.92;65.05
61037;BME280;72210;47.076;15.430;2024-03-22T02:59:08;97568.59;;;10.94;62.95
61037;BME280;72210;47.076;15.430;2024-03-22T03:01:34;97568.41;;;10.97;62.93
61037;BME280;72210;47.076;15.430;2024-03-22T03:04:00;97573.63;;;10.97;61.57
61037;BME280;72210;47.076;15.430;2024-03-22T03:06:26;97567.56;;;10.96;60.37
61037;BME280;72210;47.076;15.430;2024-03-22T03:08:52;97558.66;;;11.01;60.17
61037;BME280;72210;47.076;15.430;2024-03-22T03:11:21;97560.06;;;11.06;60.38
61037;BME280;72210;47.076;15.430;2024-03-22T03:13:46;97551.31;;;11.07;60.10
61037;BME280;72210;47.076;15.430;2024-03-22T03:16:14;97553.25;;;11.04;58.74
61037;BME280;72210;47.076;15.430;2024-03-22T03:18:40;97554.16;;;11.03;59.47
61037;BME280;72210;47.076;15.430;2024-03-22T03:21:05;97548.41;;;10.98;59.14
61037;BME280;72210;47.076;15.430;2024-03-22T03:23:32;97546.81;;;10.95;59.26
61037;BME280;72210;47.076;15.430;2024-03-22T03:25:58;97535.72;;;10.91;58.96
61037;BME280;72210;47.076;15.430;2024-03-22T03:28:24;97555.16;;;10.86;58.68
61037;BME280;72210;47.076;15.430;2024-03-22T03:30:50;97555.25;;;10.84;58.80
61037;BME280;72210;47.076;15.430;2024-03-22T03:33:18;97549.38;;;10.81;58.52
61037;BME280;72210;47.076;15.430;2024-03-22T03:35:45;97555.50;;;10.80;58.76
61037;BME280;72210;47.076;15.430;2024-03-22T03:38:12;97542.75;;;10.75;58.92
61037;BME280;72210;47.076;15.430;2024-03-22T03:40:38;97551.59;;;10.72;57.80
61037;BME280;72210;47.076;15.430;2024-03-22T03:43:04;97551.78;;;10.69;59.22
61037;BME280;72210;47.076;15.430;2024-03-22T03:45:29;97552.03;;;10.65;58.71
61037;BME280;72210;47.076;15.430;2024-03-22T03:47:55;97543.63;;;10.59;59.39
61037;BME280;72210;47.076;15.430;2024-03-22T03:50:23;97546.41;;;10.56;59.53
61037;BME280;72210;47.076;15.430;2024-03-22T03:52:49;97550.94;;;10.53;60.07
61037;BME280;72210;47.076;15.430;2024-03-22T03:55:15;97553.81;;;10.48;59.43
61037;BME280;72210;47.076;15.430;2024-03-22T03:57:42;97550.63;;;10.43;60.12
61037;BME280;72210;47.076;15.430;2024-03-22T04:00:10;97540.56;;;10.37;61.11
61037;BME280;72210;47.076;15.430;2024-03-22T04:02:36;97554.72;;;10.31;61.44
61037;BME280;72210;47.076;15.430;2024-03-22T04:05:01;97552.28;;;10.28;60.93
61037;BME280;72210;47.076;15.430;2024-03-22T04:07:29;97556.75;;;10.26;61.89
61037;BME280;72210;47.076;15.430;2024-03-22T04:09:55;97546.59;;;10.21;61.62
61037;BME280;72210;47.076;15.430;2024-03-22T04:12:20;97545.75;;;10.21;61.48
61037;BME280;72210;47.076;15.430;2024-03-22T04:14:46;97555.41;;;10.19;61.94
61037;BME280;72210;47.076;15.430;2024-03-22T04:17:12;97553.91;;;10.15;62.24
61037;BME280;72210;47.076;15.430;2024-03-22T04:19:39;97559.38;;;10.10;62.23
61037;BME280;72210;47.076;15.430;2024-03-22T04:22:04;97552.56;;;10.07;61.78
61037;BME280;72210;47.076;15.430;2024-03-22T04:24:32;97555.31;;;10.04;62.15
61037;BME280;72210;47.076;15.430;2024-03-22T04:26:58;97543.56;;;9.97;63.12
61037;BME280;72210;47.076;15.430;2024-03-22T04:29:24;97542.91;;;9.94;64.06
61037;BME280;72210;47.076;15.430;2024-03-22T04:31:50;97538.03;;;9.87;63.37
61037;BME280;72210;47.076;15.430;2024-03-22T04:34:18;97536.66;;;9.80;64.55
61037;BME280;72210;47.076;15.430;2024-03-22T04:36:44;97536.94;;;9.76;64.68
61037;BME280;72210;47.076;15.430;2024-03-22T04:39:10;97550.44;;;9.66;65.81
61037;BME280;72210;47.076;15.430;2024-03-22T04:41:37;97556.72;;;9.62;66.60
61037;BME280;72210;47.076;15.430;2024-03-22T04:44:03;97556.13;;;9.57;67.77
61037;BME280;72210;47.076;15.430;2024-03-22T04:46:29;97557.28;;;9.51;68.03
61037;BME280;72210;47.076;15.430;2024-03-22T04:48:55;97554.84;;;9.48;68.58
61037;BME280;72210;47.076;15.430;2024-03-22T04:51:21;97558.41;;;9.46;68.19
61037;BME280;72210;47.076;15.430;2024-03-22T04:53:47;97554.91;;;9.47;68.80
61037;BME280;72210;47.076;15.430;2024-03-22T04:56:14;97555.59;;;9.50;69.85
61037;BME280;72210;47.076;15.430;2024-03-22T04:58:42;97552.91;;;9.52;69.96
61037;BME280;72210;47.076;15.430;2024-03-22T05:01:08;97555.66;;;9.49;69.86
61037;BME280;72210;47.076;15.430;2024-03-22T05:03:34;97560.19;;;9.45;70.38
61037;BME280;72210;47.076;15.430;2024-03-22T05:06:00;97566.38;;;9.43;70.23
61037;BME280;72210;47.076;15.430;2024-03-22T05:08:28;97571.56;;;9.43;68.50
61037;BME280;72210;47.076;15.430;2024-03-22T05:10:54;97560.34;;;9.42;69.74
61037;BME280;72210;47.076;15.430;2024-03-22T05:13:20;97574.63;;;9.51;69.25
61037;BME280;72210;47.076;15.430;2024-03-22T05:15:48;97562.47;;;9.51;70.06
61037;BME280;72210;47.076;15.430;2024-03-22T05:18:13;97561.66;;;9.51;71.05
61037;BME280;72210;47.076;15.430;2024-03-22T05:20:39;97562.72;;;9.47;73.44
61037;BME280;72210;47.076;15.430;2024-03-22T05:23:05;97562.19;;;9.40;74.29
61037;BME280;72210;47.076;15.430;2024-03-22T05:25:31;97565.72;;;9.39;72.02
61037;BME280;72210;47.076;15.430;2024-03-22T05:27:57;97562.44;;;9.36;73.74
61037;BME280;72210;47.076;15.430;2024-03-22T05:30:23;97560.75;;;9.34;76.23
61037;BME280;72210;47.076;15.430;2024-03-22T05:32:52;97559.75;;;9.37;73.46
61037;BME280;72210;47.076;15.430;2024-03-22T05:35:18;97568.91;;;9.44;73.20
61037;BME280;72210;47.076;15.430;2024-03-22T05:37:46;97571.41;;;9.46;73.75
61037;BME280;72210;47.076;15.430;2024-03-22T05:40:12;97566.22;;;9.46;75.44
61037;BME280;72210;47.076;15.430;2024-03-22T05:42:38;97571.41;;;9.46;73.76
61037;BME280;72210;47.076;15.430;2024-03-22T05:45:04;97572.78;;;9.53;74.64
61037;BME280;72210;47.076;15.430;2024-03-22T05:47:32;97566.69;;;9.54;71.90
61037;BME280;72210;47.076;15.430;2024-03-22T05:50:01;97568.88;;;9.62;71.43
61037;BME280;72210;47.076;15.430;2024-03-22T05:52:30;97565.03;;;9.69;71.62
61037;BME280;72210;47.076;15.430;2024-03-22T05:54:56;97562.88;;;9.77;72.47
61037;BME280;72210;47.076;15.430;2024-03-22T05:57:21;97564.13;;;9.86;72.06
61037;BME280;72210;47.076;15.430;2024-03-22T05:59:47;97550.88;;;9.91;70.92
61037;BME280;72210;47.076;15.430;2024-03-22T06:02:15;97548.50;;;10.02;70.49
61037;BME280;72210;47.076;15.430;2024-03-22T06:04:41;97550.53;;;10.13;71.09
61037;BME280;72210;47.076;15.430;2024-03-22T06:07:09;97545.75;;;10.21;70.04
61037;BME280;72210;47.076;15.430;2024-03-22T06:09:35;97547.94;;;10.29;68.77
61037;BME280;72210;47.076;15.430;2024-03-22T06:12:01;97555.34;;;10.36;66.94
61037;BME280;72210;47.076;15.430;2024-03-22T06:14:26;97552.97;;;10.48;66.46
61037;BME280;72210;47.076;15.430;2024-03-22T06:16:53;97555.97;;;10.56;68.04
61037;BME280;72210;47.076;15.430;2024-03-22T06:19:19;97553.03;;;10.62;67.15
61037;BME280;72210;47.076;15.430;2024-03-22T06:21:46;97553.16;;;10.75;67.75
61037;BME280;72210;47.076;15.430;2024-03-22T06:24:14;97546.25;;;10.90;64.72
61037;BME280;72210;47.076;15.430;2024-03-22T06:26:39;97543.34;;;11.82;60.11
61037;BME280;72210;47.076;15.430;2024-03-22T06:29:05;97549.25;;;12.13;56.77
61037;BME280;72210;47.076;15.430;2024-03-22T06:31:32;97549.44;;;12.10;56.39
61037;BME280;72210;47.076;15.430;2024-03-22T06:33:57;97543.16;;;12.00;56.40
61037;BME280;72210;47.076;15.430;2024-03-22T06:36:23;97536.63;;;11.93;56.74
61037;BME280;72210;47.076;15.430;2024-03-22T06:38:49;97537.53;;;11.92;56.41
61037;BME280;72210;47.076;15.430;2024-03-22T06:41:18;97529.28;;;11.99;56.00
61037;BME280;72210;47.076;15.430;2024-03-22T06:43:43;97535.22;;;12.29;54.83
61037;BME280;72210;47.076;15.430;2024-03-22T06:46:09;97528.78;;;12.34;54.59
61037;BME280;72210;47.076;15.430;2024-03-22T06:48:35;97530.28;;;12.38;54.54
61037;BME280;72210;47.076;15.430;2024-03-22T06:51:02;97534.53;;;12.39;54.26
61037;BME280;72210;47.076;15.430;2024-03-22T06:53:27;97530.09;;;12.42;54.75
61037;BME280;72210;47.076;15.430;2024-03-22T06:55:56;97541.44;;;12.68;53.92
61037;BME280;72210;47.076;15.430;2024-03-22T06:58:24;97536.34;;;12.79;53.16
61037;BME280;72210;47.076;15.430;2024-03-22T07:00:49;97542.59;;;12.77;53.01
61037;BME280;72210;47.076;15.430;2024-03-22T07:03:17;97542.41;;;12.80;52.96
61037;BME280;72210;47.076;15.430;2024-03-22T07:05:43;97548.34;;;12.82;52.57
61037;BME280;72210;47.076;15.430;2024-03-22T07:08:09;97549.13;;;12.84;52.89
61037;BME280;72210;47.076;15.430;2024-03-22T07:10:38;97547.75;;;12.91;52.12
61037;BME280;72210;47.076;15.430;2024-03-22T07:13:04;97550.16;;;12.94;52.29
61037;BME280;72210;47.076;15.430;2024-03-22T07:15:33;97544.41;;;12.89;51.79
61037;BME280;72210;47.076;15.430;2024-03-22T07:17:59;97545.69;;;12.96;52.03
61037;BME280;72210;47.076;15.430;2024-03-22T07:20:25;97539.28;;;13.00;52.04
61037;BME280;72210;47.076;15.430;2024-03-22T07:22:52;97543.19;;;13.07;51.76
61037;BME280;72210;47.076;15.430;2024-03-22T07:25:18;97551.44;;;13.14;51.54
61037;BME280;72210;47.076;15.430;2024-03-22T07:27:43;97540.38;;;13.23;51.13
61037;BME280;72210;47.076;15.430;2024-03-22T07:30:10;97543.25;;;13.33;51.32
61037;BME280;72210;47.076;15.430;2024-03-22T07:32:37;97551.41;;;13.41;50.51
61037;BME280;72210;47.076;15.430;2024-03-22T07:35:04;97539.59;;;13.49;50.63
61037;BME280;72210;47.076;15.430;2024-03-22T07:37:32;97540.81;;;13.56;50.44
61037;BME280;72210;47.076;15.430;2024-03-22T07:39:58;97542.78;;;13.65;49.87
61037;BME280;72210;47.076;15.430;2024-03-22T07:42:24;97543.63;;;13.78;49.68
61037;BME280;72210;47.076;15.430;2024-03-22T07:44:50;97544.25;;;13.82;48.58
61037;BME280;72210;47.076;15.430;2024-03-22T07:47:16;97535.97;;;13.88;49.21
61037;BME280;72210;47.076;15.430;2024-03-22T07:49:44;97535.31;;;13.97;48.95
61037;BME280;72210;47.076;15.430;2024-03-22T07:52:10;97529.31;;;14.08;48.76
61037;BME280;72210;47.076;15.430;2024-03-22T07:54:36;97519.97;;;14.17;47.33
61037;BME280;72210;47.076;15.430;2024-03-22T07:57:01;97521.72;;;14.29;46.72
61037;BME280;72210;47.076;15.430;2024-03-22T07:59:29;97526.88;;;14.42;46.13
61037;BME280;72210;47.076;15.430;2024-03-22T08:01:55;97524.09;;;14.57;45.25
61037;BME280;72210;47.076;15.430;2024-03-22T08:04:24;97521.97;;;14.62;44.86
61037;BME280;72210;47.076;15.430;2024-03-22T08:06:52;97525.59;;;14.72;45.48
61037;BME280;72210;47.076;15.430;2024-03-22T08:09:18;97525.03;;;14.80;45.14
61037;BME280;72210;47.076;15.430;2024-03-22T08:11:44;97520.16;;;14.86;44.24
61037;BME280;72210;47.076;15.430;2024-03-22T08:14:10;97521.84;;;14.87;44.26
61037;BME280;72210;47.076;15.430;2024-03-22T08:16:36;97519.34;;;14.86;43.74
61037;BME280;72210;47.076;15.430;2024-03-22T08:19:02;97516.47;;;14.89;44.35
61037;BME280;72210;47.076;15.430;2024-03-22T08:21:28;97514.81;;;14.88;43.97
61037;BME280;72210;47.076;15.430;2024-03-22T08:23:58;97519.09;;;14.89;43.53
61037;BME280;72210;47.076;15.430;2024-03-22T08:26:24;97514.09;;;14.86;43.39
61037;BME280;72210;47.076;15.430;2024-03-22T08:28:50;97513.63;;;14.92;43.70
61037;BME280;72210;47.076;15.430;2024-03-22T08:31:16;97513.88;;;15.00;43.70
61037;BME280;72210;47.076;15.430;2024-03-22T08:33:42;97514.28;;;15.18;43.00
61037;BME280;72210;47.076;15.430;2024-03-22T08:36:08;97510.50;;;15.34;42.86
61037;BME280;72210;47.076;15.430;2024-03-22T08:38:34;97508.00;;;15.43;41.99
61037;BME280;72210;47.076;15.430;2024-03-22T08:41:02;97506.34;;;15.54;42.14
61037;BME280;72210;47.076;15.430;2024-03-22T08:43:28;97509.66;;;15.67;41.98
61037;BME280;72210;47.076;15.430;2024-03-22T08:45:53;97508.94;;;15.88;42.04
61037;BME280;72210;47.076;15.430;2024-03-22T08:48:19;97506.28;;;16.10;40.73
61037;BME280;72210;47.076;15.430;2024-03-22T08:50:45;97503.88;;;16.19;40.65
61037;BME280;72210;47.076;15.430;2024-03-22T08:53:11;97507.00;;;16.24;40.08
61037;BME280;72210;47.076;15.430;2024-03-22T08:55:37;97495.03;;;16.20;39.82
61037;BME280;72210;47.076;15.430;2024-03-22T08:58:05;97495.47;;;16.36;39.58
61037;BME280;72210;47.076;15.430;2024-03-22T09:00:32;97491.13;;;16.46;39.08
61037;BME280;72210;47.076;15.430;2024-03-22T09:02:58;97490.63;;;16.52;38.94
61037;BME280;72210;47.076;15.430;2024-03-22T09:05:24;97486.09;;;16.76;38.57
61037;BME280;72210;47.076;15.430;2024-03-22T09:07:50;97489.84;;;16.94;38.00
61037;BME280;72210;47.076;15.430;2024-03-22T09:10:16;97486.72;;;17.21;37.67
61037;BME280;72210;47.076;15.430;2024-03-22T09:12:42;97489.44;;;18.32;36.42
61037;BME280;72210;47.076;15.430;2024-03-22T09:15:10;97486.84;;;20.67;33.41
61037;BME280;72210;47.076;15.430;2024-03-22T09:17:36;97480.31;;;22.93;30.39
61037;BME280;72210;47.076;15.430;2024-03-22T09:20:01;97469.97;;;24.58;28.21
61037;BME280;72210;47.076;15.430;2024-03-22T09:22:27;97466.69;;;26.35;26.26
61037;BME280;72210;47.076;15.430;2024-03-22T09:24:53;97463.94;;;28.40;23.94
61037;BME280;72210;47.076;15.430;2024-03-22T09:27:19;97461.16;;;29.94;22.25
61037;BME280;72210;47.076;15.430;2024-03-22T09:29:45;97454.25;;;30.50;21.44
61037;BME280;72210;47.076;15.430;2024-03-22T09:32:13;97458.25;;;31.23;20.71
61037;BME280;72210;47.076;15.430;2024-03-22T09:34:40;97459.78;;;31.12;20.48
61037;BME280;72210;47.076;15.430;2024-03-22T09:37:08;97449.09;;;31.05;20.22
61037;BME280;72210;47.076;15.430;2024-03-22T09:39:33;97453.88;;;32.33;19.78
61037;BME280;72210;47.076;15.430;2024-03-22T09:41:59;97461.56;;;32.90;18.48
61037;BME280;72210;47.076;15.430;2024-03-22T09:44:27;97451.06;;;32.28;18.18
61037;BME280;72210;47.076;15.430;2024-03-22T09:46:53;97455.84;;;31.58;18.34
61037;BME280;72210;47.076;15.430;2024-03-22T09:49:20;97447.16;;;29.78;19.64
61037;BME280;72210;47.076;15.430;2024-03-22T09:51:46;97428.56;;;28.85;20.78
61037;BME280;72210;47.076;15.430;2024-03-22T09:54:13;97447.84;;;28.26;20.53
61037;BME280;72210;47.076;15.430;2024-03-22T09:56:39;97453.47;;;29.18;19.81
61037;BME280;72210;47.076;15.430;2024-03-22T09:59:06;97445.44;;;30.04;19.33
61037;BME280;72210;47.076;15.430;2024-03-22T10:01:33;97439.13;;;31.86;18.29
61037;BME280;72210;47.076;15.430;2024-03-22T10:04:00;97438.59;;;33.35;16.95
61037;BME280;72210;47.076;15.430;2024-03-22T10:06:28;97434.63;;;34.64;16.42
61037;BME280;72210;47.076;15.430;2024-03-22T10:08:57;97427.22;;;35.67;15.59
61037;BME280;72210;47.076;15.430;2024-03-22T10:11:23;97428.44;;;36.53;15.11
61037;BME280;72210;47.076;15.430;2024-03-22T10:13:51;97417.66;;;36.58;14.86
61037;BME280;72210;47.076;15.430;2024-03-22T10:16:17;97421.47;;;36.62;14.90
61037;BME280;72210;47.076;15.430;2024-03-22T10:18:43;97418.34;;;35.93;15.36
61037;BME280;72210;47.076;15.430;2024-03-22T10:21:09;97409.47;;;35.98;14.94
61037;BME280;72210;47.076;15.430;2024-03-22T10:23:37;97404.81;;;35.71;15.09
61037;BME280;72210;47.076;15.430;2024-03-22T10:26:04;97399.41;;;35.10;15.40
61037;BME280;72210;47.076;15.430;2024-03-22T10:28:30;97398.91;;;33.47;15.86
61037;BME280;72210;47.076;15.430;2024-03-22T10:30:56;97396.59;;;32.26;16.58
61037;BME280;72210;47.076;15.430;2024-03-22T10:33:22;97393.06;;;31.95;17.14
61037;BME280;72210;47.076;15.430;2024-03-22T10:35:49;97400.22;;;31.71;17.31
61037;BME280;72210;47.076;15.430;2024-03-22T10:38:17;97391.19;;;32.68;16.70
61037;BME280;72210;47.076;15.430;2024-03-22T10:40:46;97395.03;;;34.24;15.82
61037;BME280;72210;47.076;15.430;2024-03-22T10:43:12;97392.19;;;34.99;15.29
61037;BME280;72210;47.076;15.430;2024-03-22T10:45:38;97384.22;;;35.48;15.15
61037;BME280;72210;47.076;15.430;2024-03-22T10:48:07;97375.56;;;36.82;14.06
61037;BME280;72210;47.076;15.430;2024-03-22T10:50:36;97378.50;;;37.77;13.52
61037;BME280;72210;47.076;15.430;2024-03-22T10:53:04;97381.66;;;37.53;13.24
61037;BME280;72210;47.076;15.430;2024-03-22T10:55:34;97368.97;;;37.74;13.31
61037;BME280;72210;47.076;15.430;2024-03-22T10:58:04;97365.47;;;37.84;13.14
61037;BME280;72210;47.076;15.430;2024-03-22T11:00:31;97354.75;;;36.98;13.39
61037;BME280;72210;47.076;15.430;2024-03-22T11:02:57;97354.75;;;35.52;13.86
61037;BME280;72210;47.076;15.430;2024-03-22T11:05:23;97345.16;;;34.32;14.87
61037;BME280;72210;47.076;15.430;2024-03-22T11:07:58;97339.16;;;33.43;15.32
61037;BME280;72210;47.076;15.430;2024-03-22T11:10:26;97338.09;;;32.80;15.60
61037;BME280;72210;47.076;15.430;2024-03-22T11:12:54;97336.34;;;31.90;16.36
61037;BME280;72210;47.076;15.430;2024-03-22T11:15:21;97330.09;;;31.28;16.70
61037;BME280;72210;47.076;15.430;2024-03-22T11:17:47;97337.47;;;30.52;17.28
61037;BME280;72210;47.076;15.430;2024-03-22T11:20:13;97319.06;;;29.53;17.82
61037;BME280;72210;47.076;15.430;2024-03-22T11:22:39;97321.53;;;28.96;18.91
61037;BME280;72210;47.076;15.430;2024-03-22T11:25:05;97320.97;;;28.81;18.43
61037;BME280;72210;47.076;15.430;2024-03-22T11:27:31;97310.63;;;28.04;19.35
61037;BME280;72210;47.076;15.430;2024-03-22T11:29:57;97314.09;;;27.91;19.38
61037;BME280;72210;47.076;15.430;2024-03-22T11:32:25;97313.34;;;28.38;19.40
61037;BME280;72210;47.076;15.430;2024-03-22T11:34:51;97302.22;;;28.68;19.23
61037;BME280;72210;47.076;15.430;2024-03-22T11:37:17;97293.34;;;28.74;18.75
61037;BME280;72210;47.076;15.430;2024-03-22T11:39:43;97292.72;;;28.18;19.59
61037;BME280;72210;47.076;15.430;2024-03-22T11:42:09;97292.88;;;27.21;20.02
61037;BME280;72210;47.076;15.430;2024-03-22T11:44:36;97290.56;;;26.70;20.83
61037;BME280;72210;47.076;15.430;2024-03-22T11:47:02;97288.03;;;26.62;20.82
61037;BME280;72210;47.076;15.430;2024-03-22T11:49:31;97283.81;;;26.74;20.36
61037;BME280;72210;47.076;15.430;2024-03-22T11:51:57;97274.09;;;27.01;20.05
61037;BME280;72210;47.076;15.430;2024-03-22T11:54:23;97270.41;;;27.57;19.64
61037;BME280;72210;47.076;15.430;2024-03-22T11:56:49;97262.22;;;27.79;19.28
61037;BME280;72210;47.076;15.430;2024-03-22T11:59:17;97259.56;;;28.26;19.11
61037;BME280;72210;47.076;15.430;2024-03-22T12:01:44;97264.16;;;29.11;19.06
61037;BME280;72210;47.076;15.430;2024-03-22T12:04:10;97258.34;;;29.98;18.11
61037;BME280;72210;47.076;15.430;2024-03-22T12:06:38;97245.94;;;31.40;17.06
61037;BME280;72210;47.076;15.430;2024-03-22T12:09:07;97245.09;;;31.09;16.81
61037;BME280;72210;47.076;15.430;2024-03-22T12:11:35;97241.84;;;30.19;17.79
61037;BME280;72210;47.076;15.430;2024-03-22T12:14:01;97247.91;;;29.83;17.47
61037;BME280;72210;47.076;15.430;2024-03-22T12:16:26;97246.06;;;28.99;18.26
61037;BME280;72210;47.076;15.430;2024-03-22T12:18:52;97247.25;;;28.25;18.90
61037;BME280;72210;47.076;15.430;2024-03-22T12:21:19;97243.06;;;27.75;19.24
61037;BME280;72210;47.076;15.430;2024-03-22T12:23:47;97245.09;;;27.67;19.51
61037;BME280;72210;47.076;15.430;2024-03-22T12:26:13;97240.63;;;28.07;18.97
61037;BME280;72210;47.076;15.430;2024-03-22T12:28:39;97234.47;;;28.07;19.09
61037;BME280;72210;47.076;15.430;2024-03-22T12:31:05;97229.28;;;27.85;19.68
61037;BME280;72210;47.076;15.430;2024-03-22T12:33:30;97234.63;;;27.79;19.09
61037;BME280;72210;47.076;15.430;2024-03-22T12:35:57;97226.97;;;27.42;19.71
61037;BME280;72210;47.076;15.430;2024-03-22T12:38:25;97222.25;;;27.44;19.45
61037;BME280;72210;47.076;15.430;2024-03-22T12:40:58;97222.16;;;27.24;19.94
61037;BME280;72210;47.076;15.430;2024-03-22T12:43:24;97216.69;;;26.91;20.30
61037;BME280;72210;47.076;15.430;2024-03-22T12:45:50;97212.31;;;26.76;20.22